Terminal Aerodrome Forecast
Issued by NWS Wilmington, NC

Home | Current Version | Previous Version | Text Only | Print | Product List | Glossary On
Versions: 1 2 3 4 5 6 7 8 9 10 11 12 13 14 15 16 17
000
FTUS42 KILM 050522
TAFLBT
TAF
KLBT 050522Z 0506/0606 22006KT P6SM VCSH SCT050 SCT250
     FM051900 21008KT P6SM VCTS SCT050CB SCT150 BKN250=

USA.gov is the U.S. government's official web portal to all federal, state and local government web resources and services.